Time;durP1;ratioP1;P1;durP2;ratioP2;P2;SDS_P1;SDS_P2;PMS_P1;PMS_P2;Temp;Humidity;BMP_temperature;BMP_pressure;BME280_temperature;BME280_humidity;BME280_pressure;Samples;Min_cycle;Max_cycle;Signal;HPM_P1;HPM_P2
2023/01/03 00:00:00;;;;;;;15.80;6.07;;;6.90;99.90;;;;;;5085576;28;20205;-83
2023/01/03 00:02:27;;;;;;;15.30;6.65;;;6.90;99.90;;;;;;5088274;28;20514;-83
2023/01/03 00:04:53;;;;;;;7.88;6.45;;;6.90;99.90;;;;;;5079033;28;20253;-82
2023/01/03 00:07:33;;;;;;;20.10;7.38;;;7.00;99.90;;;;;;5079887;28;20218;-82
2023/01/03 00:10:00;;;;;;;6.93;6.10;;;6.90;99.90;;;;;;5082931;28;20206;-83
2023/01/03 00:12:28;;;;;;;7.32;5.60;;;6.90;99.90;;;;;;5083239;28;20191;-82
2023/01/03 00:14:55;;;;;;;12.73;7.18;;;6.90;99.90;;;;;;5080527;28;20217;-83
2023/01/03 00:17:22;;;;;;;13.85;9.13;;;7.00;99.90;;;;;;5086217;28;20202;-83
2023/01/03 00:19:49;;;;;;;11.23;6.20;;;6.80;99.90;;;;;;5088934;28;20207;-83
2023/01/03 00:22:17;;;;;;;17.02;6.22;;;6.80;99.90;;;;;;5093316;28;20203;-81
2023/01/03 00:24:45;;;;;;;14.63;7.45;;;6.70;99.90;;;;;;5087849;28;20225;-83
2023/01/03 00:27:12;;;;;;;18.40;7.05;;;6.70;99.90;;;;;;5091591;28;20197;-82
2023/01/03 00:29:41;;;;;;;14.80;7.68;;;6.70;99.90;;;;;;5091762;28;20204;-83
2023/01/03 00:32:08;;;;;;;13.02;6.32;;;6.60;99.90;;;;;;5077437;28;20205;-82
2023/01/03 00:34:36;;;;;;;16.65;7.15;;;6.60;99.90;;;;;;5074595;28;20202;-82
2023/01/03 00:37:03;;;;;;;11.85;8.98;;;6.60;99.90;;;;;;5071242;28;20234;-82
2023/01/03 00:39:30;;;;;;;15.00;9.65;;;6.60;99.90;;;;;;5077442;28;20202;-83
2023/01/03 00:41:57;;;;;;;11.30;8.05;;;6.60;99.90;;;;;;5078234;28;20288;-82
2023/01/03 00:44:24;;;;;;;17.17;6.80;;;6.70;99.90;;;;;;5076078;28;20281;-83
2023/01/03 00:46:52;;;;;;;13.45;8.85;;;6.60;99.90;;;;;;5076069;28;20265;-81
2023/01/03 00:49:19;;;;;;;15.15;7.88;;;6.60;99.90;;;;;;5083824;28;20261;-82
2023/01/03 00:51:46;;;;;;;16.40;8.13;;;6.50;99.90;;;;;;5082167;28;20215;-82
2023/01/03 00:54:15;;;;;;;12.82;7.93;;;6.50;99.90;;;;;;5081117;28;20195;-83
2023/01/03 00:56:43;;;;;;;14.77;8.23;;;6.50;99.90;;;;;;5079042;28;20289;-82
2023/01/03 00:59:10;;;;;;;17.40;9.68;;;6.40;99.90;;;;;;5069451;28;20289;-82
2023/01/03 01:01:40;;;;;;;12.05;6.70;;;6.40;99.90;;;;;;5082797;28;20208;-83
2023/01/03 01:04:10;;;;;;;13.48;9.15;;;6.50;99.90;;;;;;5077384;28;20211;-83
2023/01/03 01:06:41;;;;;;;18.35;8.65;;;6.30;99.90;;;;;;5075247;28;20221;-83
2023/01/03 01:09:12;;;;;;;14.63;9.60;;;6.30;99.90;;;;;;5067904;28;20219;-83
2023/01/03 01:11:40;;;;;;;13.60;8.07;;;6.30;99.90;;;;;;5078611;28;20265;-83
2023/01/03 01:14:18;;;;;;;12.80;7.70;;;6.20;99.90;;;;;;5078056;28;20205;-82
2023/01/03 01:16:47;;;;;;;9.82;6.93;;;6.20;99.90;;;;;;5082123;28;20610;-82
2023/01/03 01:19:15;;;;;;;16.83;9.93;;;6.30;99.90;;;;;;5082588;28;20213;-82
2023/01/03 01:21:43;;;;;;;10.30;8.07;;;6.10;99.90;;;;;;5080808;28;20208;-83
2023/01/03 01:24:10;;;;;;;17.58;8.77;;;6.20;99.90;;;;;;5086096;28;20286;-82
2023/01/03 01:26:37;;;;;;;14.52;9.32;;;6.20;99.90;;;;;;5087986;28;20225;-82
2023/01/03 01:29:04;;;;;;;19.42;9.07;;;6.20;99.90;;;;;;5075133;28;20244;-83
2023/01/03 01:31:32;;;;;;;14.25;8.82;;;6.20;99.90;;;;;;5076344;28;20186;-83
2023/01/03 01:33:59;;;;;;;10.35;8.07;;;6.30;99.90;;;;;;5085196;28;20220;-82
2023/01/03 01:36:29;;;;;;;19.40;10.18;;;6.30;99.90;;;;;;5082166;28;20230;-82
2023/01/03 01:39:00;;;;;;;14.73;9.35;;;6.00;99.90;;;;;;5086864;28;20237;-82
2023/01/03 01:44:46;;;;;;;15.52;9.57;;;6.30;99.90;;;;;;5080975;28;20205;-83
2023/01/03 01:47:17;;;;;;;15.75;8.32;;;6.20;99.90;;;;;;5083692;28;20277;-82
2023/01/03 01:49:46;;;;;;;16.13;10.07;;;6.20;99.90;;;;;;5086074;28;20239;-82
2023/01/03 01:52:18;;;;;;;19.08;9.68;;;6.20;99.90;;;;;;5085584;28;20223;-83
2023/01/03 01:54:45;;;;;;;15.50;8.77;;;6.10;99.90;;;;;;5064759;28;20221;-82
2023/01/03 01:57:16;;;;;;;10.38;9.15;;;6.10;99.90;;;;;;5091707;28;20302;-82
2023/01/03 01:59:44;;;;;;;13.80;9.13;;;6.10;99.90;;;;;;5076746;28;20208;-82
2023/01/03 02:02:12;;;;;;;15.48;8.93;;;6.00;99.90;;;;;;5074099;28;20240;-82
2023/01/03 02:04:40;;;;;;;15.07;9.80;;;6.00;99.90;;;;;;5087604;28;20199;-82
2023/01/03 02:07:08;;;;;;;12.65;8.50;;;6.00;99.90;;;;;;5083520;28;20201;-82
2023/01/03 02:09:36;;;;;;;11.43;8.57;;;6.20;99.90;;;;;;5079736;28;20301;-83
2023/01/03 02:15:11;;;;;;;9.95;7.80;;;6.00;99.90;;;;;;5078749;28;20231;-83
2023/01/03 02:17:53;;;;;;;15.98;9.45;;;6.10;99.90;;;;;;5086302;28;20198;-83
2023/01/03 02:20:32;;;;;;;18.38;9.18;;;6.10;99.90;;;;;;5083262;28;20233;-82
2023/01/03 02:23:30;;;;;;;16.42;8.80;;;6.10;99.90;;;;;;5086510;28;20228;-82
2023/01/03 02:26:42;;;;;;;13.88;8.88;;;6.00;99.90;;;;;;5080310;28;20221;-82
2023/01/03 02:29:49;;;;;;;14.38;9.00;;;6.10;99.90;;;;;;5086120;28;20232;-82
2023/01/03 02:32:22;;;;;;;14.85;9.68;;;6.10;99.90;;;;;;5089302;28;20208;-82
2023/01/03 02:34:55;;;;;;;12.40;8.73;;;6.00;99.90;;;;;;5074367;28;20332;-82
2023/01/03 02:37:31;;;;;;;17.67;9.88;;;6.00;99.90;;;;;;5079688;28;20230;-82
2023/01/03 02:40:03;;;;;;;10.00;8.20;;;6.00;99.90;;;;;;5085662;28;20300;-84
2023/01/03 02:45:30;;;;;;;17.95;9.65;;;6.00;99.90;;;;;;5083843;28;20241;-82
2023/01/03 02:48:02;;;;;;;21.42;10.48;;;6.00;99.90;;;;;;5086264;28;20220;-83
2023/01/03 02:50:35;;;;;;;16.58;10.30;;;6.20;99.90;;;;;;5080805;28;20196;-83
2023/01/03 02:53:06;;;;;;;26.70;11.70;;;6.00;99.90;;;;;;5086712;28;20223;-83
2023/01/03 02:55:34;;;;;;;20.05;10.13;;;5.90;99.90;;;;;;5081716;28;20292;-82
2023/01/03 02:58:05;;;;;;;12.38;8.55;;;5.90;99.90;;;;;;5079024;28;20244;-82
2023/01/03 03:00:34;;;;;;;16.20;10.93;;;5.90;99.90;;;;;;5075583;28;20201;-82
2023/01/03 03:03:08;;;;;;;13.23;10.40;;;5.80;99.90;;;;;;5069398;28;20300;-83
2023/01/03 03:05:42;;;;;;;19.42;11.27;;;5.90;99.90;;;;;;5086073;28;20230;-82
2023/01/03 03:08:09;;;;;;;26.70;10.40;;;5.80;99.90;;;;;;5071476;28;20242;-82
2023/01/03 03:13:31;;;;;;;16.58;10.55;;;5.80;99.90;;;;;;5054677;28;20252;-81
2023/01/03 03:16:02;;;;;;;22.08;11.90;;;5.90;99.90;;;;;;5070987;28;20289;-83
2023/01/03 03:18:38;;;;;;;15.90;11.85;;;5.70;99.90;;;;;;5073097;28;20228;-81
2023/01/03 03:26:44;;;;;;;18.23;11.27;;;5.60;99.90;;;;;;5085391;28;20287;-82
2023/01/03 03:29:15;;;;;;;16.88;11.55;;;5.60;99.90;;;;;;5079989;28;20255;-82
2023/01/03 03:31:45;;;;;;;18.17;11.23;;;5.60;99.90;;;;;;5080787;28;20206;-83
2023/01/03 03:34:17;;;;;;;15.98;10.55;;;5.60;99.90;;;;;;5079363;28;20221;-82
2023/01/03 03:36:53;;;;;;;17.27;11.82;;;5.60;99.90;;;;;;5071528;28;20254;-82
2023/01/03 03:45:10;;;;;;;25.70;12.13;;;5.70;99.90;;;;;;5097948;28;20215;-83
2023/01/03 03:47:45;;;;;;;23.73;12.00;;;5.50;99.90;;;;;;5089176;28;20192;-84
2023/01/03 03:50:20;;;;;;;19.02;12.15;;;5.40;99.90;;;;;;5090450;28;20274;-82
2023/01/03 03:52:51;;;;;;;21.48;10.48;;;5.50;99.90;;;;;;5081819;28;20193;-83
2023/01/03 03:55:22;;;;;;;19.38;10.73;;;5.50;99.90;;;;;;5083105;28;20235;-82
2023/01/03 03:57:56;;;;;;;17.75;11.43;;;5.40;99.90;;;;;;5087068;28;20212;-83
2023/01/03 04:00:27;;;;;;;16.52;10.02;;;5.40;99.90;;;;;;5085240;28;20185;-82
2023/01/03 04:02:56;;;;;;;16.67;11.15;;;5.40;99.90;;;;;;5089320;28;20216;-83
2023/01/03 04:05:29;;;;;;;14.73;11.05;;;5.40;99.90;;;;;;5081643;28;20268;-83
2023/01/03 04:07:56;;;;;;;24.85;12.50;;;5.40;99.90;;;;;;5083760;28;20180;-80
2023/01/03 04:10:24;;;;;;;19.48;11.68;;;5.30;99.90;;;;;;5089545;28;20267;-82
2023/01/03 04:12:51;;;;;;;21.13;12.05;;;5.40;99.90;;;;;;5094442;28;20212;-82
2023/01/03 04:15:19;;;;;;;22.05;13.45;;;5.40;99.90;;;;;;5084923;28;20216;-82
2023/01/03 04:17:45;;;;;;;22.63;14.13;;;5.30;99.90;;;;;;5089148;28;20329;-81
2023/01/03 04:20:13;;;;;;;22.52;12.63;;;5.30;99.90;;;;;;5073553;28;20208;-82
2023/01/03 04:22:42;;;;;;;23.75;11.80;;;5.30;99.90;;;;;;5084000;28;20239;-82
2023/01/03 04:25:09;;;;;;;27.98;11.93;;;5.30;99.90;;;;;;5083173;28;20250;-81
2023/01/03 04:27:36;;;;;;;23.02;12.75;;;5.40;99.90;;;;;;5085235;28;20396;-82
2023/01/03 04:30:04;;;;;;;18.27;12.35;;;5.30;99.90;;;;;;5084010;28;20250;-83
2023/01/03 04:32:30;;;;;;;22.35;11.98;;;5.30;99.90;;;;;;5090437;28;20223;-82
2023/01/03 04:34:57;;;;;;;20.10;11.60;;;5.20;99.90;;;;;;5079052;28;20223;-82
2023/01/03 04:37:24;;;;;;;18.27;10.70;;;5.20;99.90;;;;;;5074223;28;20634;-82
2023/01/03 04:39:52;;;;;;;17.65;11.40;;;5.00;99.90;;;;;;5076333;28;20274;-83
2023/01/03 04:45:04;;;;;;;17.52;10.07;;;5.10;99.90;;;;;;5079044;28;20225;-83
2023/01/03 04:47:31;;;;;;;25.88;12.13;;;5.10;99.90;;;;;;5079181;28;20207;-83
2023/01/03 04:49:58;;;;;;;20.27;12.00;;;5.00;99.90;;;;;;5083831;28;20231;-84
2023/01/03 04:52:25;;;;;;;19.80;11.10;;;5.20;99.90;;;;;;5073201;28;20271;-83
2023/01/03 04:54:53;;;;;;;21.20;13.38;;;5.00;99.90;;;;;;5075709;28;20295;-83
2023/01/03 04:57:20;;;;;;;15.45;10.30;;;5.00;99.90;;;;;;5084942;28;20262;-81
2023/01/03 04:59:46;;;;;;;15.57;10.13;;;5.10;99.90;;;;;;5083424;28;20212;-82
2023/01/03 05:02:13;;;;;;;18.35;10.30;;;5.10;99.90;;;;;;5086791;28;20213;-82
2023/01/03 05:04:41;;;;;;;16.35;9.93;;;5.10;99.90;;;;;;5073250;28;20231;-81
2023/01/03 05:07:08;;;;;;;14.10;10.57;;;5.00;99.90;;;;;;5085212;28;20227;-83
2023/01/03 05:09:35;;;;;;;21.52;13.25;;;5.10;99.90;;;;;;5077687;28;20257;-82
2023/01/03 05:12:03;;;;;;;21.02;11.65;;;5.00;99.90;;;;;;5082441;28;20210;-83
2023/01/03 05:14:30;;;;;;;31.65;11.55;;;5.00;99.90;;;;;;5071721;28;20259;-82
2023/01/03 05:16:57;;;;;;;17.85;11.57;;;5.00;99.90;;;;;;5079732;28;20641;-83
2023/01/03 05:19:24;;;;;;;13.13;10.02;;;5.10;99.90;;;;;;5078303;28;20210;-84
2023/01/03 05:27:17;;;;;;;18.55;10.13;;;5.20;99.90;;;;;;5082073;28;20198;-82
2023/01/03 05:29:49;;;;;;;13.10;9.70;;;5.30;99.90;;;;;;5095498;28;20241;-82
2023/01/03 05:32:15;;;;;;;20.08;12.00;;;5.10;99.90;;;;;;5091049;28;20697;-82
2023/01/03 05:34:43;;;;;;;19.50;11.20;;;5.10;99.90;;;;;;5083617;28;20606;-82
2023/01/03 05:37:10;;;;;;;15.95;11.23;;;5.20;99.90;;;;;;5085336;28;20200;-82
2023/01/03 05:39:37;;;;;;;14.38;10.82;;;5.10;99.90;;;;;;5079295;28;20715;-82
2023/01/03 05:42:04;;;;;;;22.83;12.68;;;5.10;99.90;;;;;;5089300;28;20199;-82
2023/01/03 05:44:34;;;;;;;18.70;11.55;;;5.10;99.90;;;;;;5079228;28;20187;-84
2023/01/03 05:47:02;;;;;;;24.42;13.35;;;5.10;99.90;;;;;;5074713;28;20195;-83
2023/01/03 05:49:29;;;;;;;21.65;13.13;;;5.10;99.90;;;;;;5079241;28;20234;-82
2023/01/03 05:51:55;;;;;;;23.13;12.88;;;5.10;99.90;;;;;;5079325;28;20192;-82
2023/01/03 05:54:22;;;;;;;22.90;13.90;;;5.10;99.90;;;;;;5093961;28;20219;-82
2023/01/03 05:56:50;;;;;;;25.25;13.10;;;5.20;99.90;;;;;;5086445;28;20274;-82
2023/01/03 05:59:16;;;;;;;20.27;13.10;;;5.10;99.90;;;;;;5088501;28;20211;-83
2023/01/03 06:01:45;;;;;;;23.55;15.57;;;5.10;99.90;;;;;;5082664;28;20220;-82
2023/01/03 06:04:12;;;;;;;21.45;13.10;;;5.00;99.90;;;;;;5086593;28;20219;-82
2023/01/03 06:06:39;;;;;;;23.83;14.50;;;4.90;99.90;;;;;;5080213;28;20226;-83
2023/01/03 06:09:06;;;;;;;34.40;15.20;;;4.90;99.90;;;;;;5080047;28;20230;-82
2023/01/03 06:11:33;;;;;;;34.42;16.48;;;4.90;99.90;;;;;;5091331;28;20239;-82
2023/01/03 06:13:59;;;;;;;24.20;14.70;;;4.90;99.90;;;;;;5078091;28;20192;-83
2023/01/03 06:19:12;;;;;;;28.10;14.60;;;4.80;99.90;;;;;;5068655;28;20241;-82
2023/01/03 06:21:40;;;;;;;27.17;15.30;;;4.80;99.90;;;;;;5079061;28;20203;-83
2023/01/03 06:24:08;;;;;;;22.42;15.38;;;4.70;99.90;;;;;;5079036;28;20230;-83
2023/01/03 06:26:35;;;;;;;24.77;15.35;;;4.70;99.90;;;;;;5080594;28;20223;-84
2023/01/03 06:29:02;;;;;;;24.75;15.32;;;4.70;99.90;;;;;;5082792;28;20233;-82
2023/01/03 06:31:29;;;;;;;24.80;15.95;;;4.80;99.90;;;;;;5085614;28;20287;-82
2023/01/03 06:34:00;;;;;;;31.33;18.92;;;4.70;99.90;;;;;;5082095;28;20194;-83
2023/01/03 06:36:30;;;;;;;29.65;16.63;;;4.80;99.90;;;;;;5091481;28;20229;-81
2023/01/03 06:38:58;;;;;;;29.60;18.15;;;4.70;99.90;;;;;;5090967;28;20207;-82
2023/01/03 06:41:25;;;;;;;31.42;17.20;;;4.80;99.90;;;;;;5080764;28;20272;-83
2023/01/03 06:43:53;;;;;;;32.40;17.60;;;4.90;99.90;;;;;;5081948;28;20229;-82
2023/01/03 06:54:44;;;;;;;40.30;18.98;;;5.00;99.90;;;;;;5099547;28;20218;-85
2023/01/03 06:57:11;;;;;;;29.77;18.13;;;5.10;99.90;;;;;;5095675;28;20199;-86
2023/01/03 06:59:38;;;;;;;30.38;17.85;;;5.10;99.90;;;;;;5094564;28;20179;-84
2023/01/03 07:02:05;;;;;;;36.25;18.70;;;5.20;99.90;;;;;;5079444;28;20207;-86
2023/01/03 07:04:32;;;;;;;37.13;18.17;;;5.20;99.90;;;;;;5096723;28;20196;-84
2023/01/03 07:07:01;;;;;;;32.42;17.90;;;5.20;99.90;;;;;;5087578;28;20227;-86
2023/01/03 07:09:28;;;;;;;31.65;18.27;;;5.30;99.90;;;;;;5096041;28;20219;-88
2023/01/03 07:11:56;;;;;;;27.15;16.05;;;5.40;99.90;;;;;;5104991;22;20284;-75
2023/01/03 07:14:22;;;;;;;33.55;17.70;;;5.40;99.90;;;;;;5039760;28;20198;-72
2023/01/03 07:16:49;;;;;;;31.00;17.40;;;5.40;99.90;;;;;;5051610;28;20275;-71
2023/01/03 07:19:19;;;;;;;35.17;19.67;;;5.50;99.90;;;;;;5050224;28;20520;-73
2023/01/03 07:21:48;;;;;;;31.25;18.10;;;5.60;99.90;;;;;;5045822;28;20211;-75
2023/01/03 07:24:19;;;;;;;35.40;20.50;;;5.50;99.90;;;;;;5045008;28;20266;-72
2023/01/03 07:26:46;;;;;;;32.75;20.45;;;5.50;99.90;;;;;;5037479;28;20575;-72
2023/01/03 07:29:14;;;;;;;32.67;18.48;;;5.60;99.90;;;;;;5042146;28;20228;-73
2023/01/03 07:31:41;;;;;;;30.77;21.42;;;5.60;99.90;;;;;;5044674;28;20288;-73
2023/01/03 07:34:09;;;;;;;37.08;21.02;;;5.50;99.90;;;;;;5051531;28;20235;-73
2023/01/03 07:36:36;;;;;;;33.45;22.10;;;5.50;99.90;;;;;;5045101;28;20303;-74
2023/01/03 07:39:03;;;;;;;44.40;21.73;;;5.60;99.90;;;;;;5047027;28;20229;-74
2023/01/03 07:44:16;;;;;;;41.38;21.75;;;5.60;99.90;;;;;;5044372;28;20339;-74
2023/01/03 07:46:43;;;;;;;36.90;21.35;;;5.60;99.90;;;;;;5052058;28;20612;-73
2023/01/03 07:49:10;;;;;;;33.90;19.40;;;5.60;99.90;;;;;;5050675;28;20748;-73
2023/01/03 07:51:37;;;;;;;43.25;21.95;;;5.60;99.90;;;;;;5046464;28;20643;-73
2023/01/03 07:54:06;;;;;;;37.03;21.75;;;5.60;99.90;;;;;;5050323;28;20205;-73
2023/01/03 07:56:34;;;;;;;39.53;22.15;;;5.50;99.90;;;;;;5050863;28;20636;-74
2023/01/03 07:59:01;;;;;;;42.83;23.25;;;5.50;99.90;;;;;;5056208;28;20198;-73
2023/01/03 08:01:28;;;;;;;32.63;21.52;;;5.50;99.90;;;;;;5061019;28;20216;-74
2023/01/03 08:04:10;;;;;;;38.95;21.95;;;5.50;99.90;;;;;;5060083;28;20208;-74
2023/01/03 08:06:36;;;;;;;45.20;24.17;;;5.60;99.90;;;;;;5038136;28;20296;-75
2023/01/03 08:14:34;;;;;;;39.88;22.30;;;5.50;99.90;;;;;;5037249;28;20219;-73
2023/01/03 08:17:01;;;;;;;38.30;25.60;;;5.50;99.90;;;;;;5046092;28;20211;-74
2023/01/03 08:19:28;;;;;;;47.45;25.98;;;5.60;99.90;;;;;;5039351;28;20288;-74
2023/01/03 08:21:55;;;;;;;39.75;24.52;;;5.60;99.90;;;;;;5045580;28;20234;-73
2023/01/03 08:24:22;;;;;;;35.33;22.38;;;5.70;99.90;;;;;;5046661;28;20290;-72
2023/01/03 08:26:50;;;;;;;37.75;23.10;;;5.70;99.90;;;;;;5042025;28;20257;-75
2023/01/03 08:29:17;;;;;;;43.92;25.38;;;5.80;99.90;;;;;;5041603;28;20198;-76
2023/01/03 08:31:49;;;;;;;38.83;22.85;;;5.80;99.90;;;;;;5038562;28;20286;-74
2023/01/03 08:34:17;;;;;;;35.72;23.08;;;5.90;99.90;;;;;;5045766;28;20230;-73
2023/01/03 08:36:48;;;;;;;45.35;21.52;;;6.00;99.90;;;;;;5037916;28;20264;-75
2023/01/03 08:39:21;;;;;;;36.03;21.98;;;6.20;99.90;;;;;;5034546;28;20204;-75
2023/01/03 08:41:54;;;;;;;43.25;22.42;;;6.40;99.90;;;;;;5032951;28;20223;-76
2023/01/03 08:44:21;;;;;;;37.70;21.63;;;6.50;99.90;;;;;;5025702;28;20657;-76
2023/01/03 08:46:51;;;;;;;38.70;21.50;;;6.60;99.90;;;;;;5040593;28;20234;-73
2023/01/03 08:49:19;;;;;;;32.65;20.80;;;6.70;99.90;;;;;;5039389;28;20222;-73
2023/01/03 08:51:46;;;;;;;38.10;20.88;;;6.80;99.90;;;;;;5044570;28;20359;-74
2023/01/03 08:54:13;;;;;;;41.17;20.40;;;7.10;99.90;;;;;;5046708;28;20200;-73
2023/01/03 08:56:40;;;;;;;37.17;19.60;;;7.20;99.90;;;;;;5035801;28;20663;-72
2023/01/03 08:59:08;;;;;;;30.73;19.35;;;7.60;99.90;;;;;;5044695;28;20238;-73
2023/01/03 09:01:36;;;;;;;32.85;20.13;;;8.00;99.90;;;;;;5045987;28;20291;-72
2023/01/03 09:04:04;;;;;;;27.63;17.02;;;8.30;99.90;;;;;;5048687;28;20235;-74
2023/01/03 09:06:31;;;;;;;37.30;18.52;;;8.40;99.90;;;;;;5056754;28;20623;-73
2023/01/03 09:08:58;;;;;;;25.77;18.38;;;8.60;99.90;;;;;;5048303;28;20303;-73
2023/01/03 09:11:24;;;;;;;32.60;17.30;;;9.00;99.90;;;;;;5054270;28;20262;-73
2023/01/03 09:13:51;;;;;;;32.22;17.23;;;8.80;99.90;;;;;;5050591;28;20702;-74
2023/01/03 09:16:20;;;;;;;28.23;18.00;;;9.00;99.90;;;;;;5054816;28;20406;-74
2023/01/03 09:18:46;;;;;;;28.42;17.08;;;9.20;99.90;;;;;;5053141;28;20290;-75
2023/01/03 09:21:14;;;;;;;27.30;18.05;;;8.80;99.90;;;;;;5048839;28;20218;-73
2023/01/03 09:23:41;;;;;;;27.38;17.90;;;8.90;99.90;;;;;;5048084;28;20207;-74
2023/01/03 09:26:08;;;;;;;26.15;17.17;;;8.90;99.90;;;;;;5048508;28;20306;-75
2023/01/03 09:28:35;;;;;;;29.52;19.15;;;8.60;99.90;;;;;;5048452;28;20200;-74
2023/01/03 09:31:04;;;;;;;28.75;18.80;;;8.30;99.90;;;;;;5059106;28;20272;-74
2023/01/03 09:33:32;;;;;;;32.28;18.10;;;7.70;99.90;;;;;;5051916;28;20567;-73
2023/01/03 09:36:00;;;;;;;37.33;20.88;;;7.00;99.90;;;;;;5054846;28;20228;-75
2023/01/03 09:38:27;;;;;;;34.17;21.00;;;6.60;99.90;;;;;;5052722;28;20248;-72
2023/01/03 09:41:02;;;;;;;47.42;21.15;;;6.30;99.90;;;;;;5056127;28;20210;-74
2023/01/03 09:43:33;;;;;;;41.42;22.77;;;6.00;99.90;;;;;;5045504;28;20219;-73
2023/01/03 09:46:00;;;;;;;39.25;21.25;;;5.80;99.90;;;;;;5071541;28;20223;-75
2023/01/03 09:48:32;;;;;;;42.97;21.02;;;5.60;99.90;;;;;;5057129;28;20231;-74
2023/01/03 09:51:01;;;;;;;40.65;22.42;;;5.50;99.90;;;;;;5048491;28;20197;-75
2023/01/03 10:05:21;;;;;;;26.98;17.17;;;8.10;99.90;;;;;;5054127;28;20287;-76
2023/01/03 10:08:18;;;;;;;38.78;20.73;;;8.00;99.90;;;;;;5037642;28;20207;-73
2023/01/03 10:10:57;;;;;;;32.90;19.95;;;7.60;99.90;;;;;;5046115;28;20263;-75
2023/01/03 10:13:35;;;;;;;34.80;20.70;;;7.40;99.90;;;;;;5050726;28;20289;-78
2023/01/03 10:16:10;;;;;;;37.83;20.80;;;7.10;99.90;;;;;;5041931;28;20223;-75
2023/01/03 10:18:54;;;;;;;35.53;22.33;;;6.90;99.90;;;;;;5044888;28;20229;-74
2023/01/03 10:21:29;;;;;;;39.80;22.40;;;6.70;99.90;;;;;;5049530;28;20235;-72
2023/01/03 10:23:58;;;;;;;34.47;21.15;;;6.70;99.90;;;;;;5033578;28;20239;-74
2023/01/03 10:26:26;;;;;;;41.75;22.65;;;6.60;99.90;;;;;;5049920;28;20312;-75
2023/01/03 10:28:53;;;;;;;38.28;20.95;;;6.40;99.90;;;;;;5045013;28;20208;-75
2023/01/03 10:31:40;;;;;;;36.83;24.10;;;6.30;99.90;;;;;;5058079;28;20202;-74
2023/01/03 10:34:09;;;;;;;36.55;22.00;;;6.20;99.90;;;;;;5047629;28;20210;-73
2023/01/03 10:36:36;;;;;;;44.58;24.27;;;6.20;99.90;;;;;;5052799;28;20230;-75
2023/01/03 10:39:08;;;;;;;43.20;26.63;;;5.90;99.90;;;;;;5050098;28;20239;-73
2023/01/03 10:41:42;;;;;;;51.05;27.65;;;5.90;99.90;;;;;;5045959;28;20581;-74
2023/01/03 10:44:23;;;;;;;42.10;23.75;;;6.00;99.90;;;;;;5050057;28;20299;-75
2023/01/03 10:46:53;;;;;;;47.33;24.23;;;6.10;99.90;;;;;;5052696;28;20225;-77
2023/01/03 10:49:23;;;;;;;48.35;27.27;;;6.30;99.90;;;;;;5041572;28;20280;-75
2023/01/03 10:51:56;;;;;;;48.83;28.80;;;6.20;99.90;;;;;;5044219;28;20195;-76
2023/01/03 10:54:31;;;;;;;47.83;26.70;;;6.30;99.90;;;;;;5040946;28;20208;-75
2023/01/03 10:56:58;;;;;;;43.72;24.05;;;6.50;99.90;;;;;;5043949;28;20209;-76
2023/01/03 10:59:26;;;;;;;42.33;24.98;;;6.70;99.90;;;;;;5045370;28;20235;-75
2023/01/03 11:02:01;;;;;;;37.85;23.15;;;6.80;99.90;;;;;;5038053;28;20310;-77
2023/01/03 11:04:29;;;;;;;38.53;22.67;;;6.60;99.90;;;;;;5052999;28;20703;-75
2023/01/03 11:07:01;;;;;;;39.67;25.25;;;6.80;99.90;;;;;;5050385;28;20265;-74
2023/01/03 11:09:35;;;;;;;38.75;24.65;;;6.90;99.90;;;;;;5051146;28;20207;-76
2023/01/03 11:12:05;;;;;;;40.42;23.15;;;7.30;99.90;;;;;;5025984;28;20214;-77
2023/01/03 11:14:32;;;;;;;40.03;22.00;;;7.50;99.90;;;;;;5050863;28;20237;-74
2023/01/03 11:17:03;;;;;;;37.85;22.85;;;7.50;99.90;;;;;;5037152;28;20273;-76
2023/01/03 11:19:31;;;;;;;36.35;22.05;;;7.30;99.90;;;;;;5041529;28;20207;-77
2023/01/03 11:22:07;;;;;;;39.53;23.80;;;7.40;99.90;;;;;;5046028;28;20215;-78
2023/01/03 11:24:51;;;;;;;47.97;24.35;;;7.40;99.90;;;;;;5036804;28;20221;-78
2023/01/03 11:27:27;;;;;;;38.13;25.15;;;7.20;99.90;;;;;;5046038;28;20567;-76
2023/01/03 11:30:08;;;;;;;39.17;23.85;;;7.40;99.90;;;;;;5041255;28;20192;-75
2023/01/03 11:32:55;;;;;;;33.83;22.98;;;7.50;99.90;;;;;;5064367;28;20199;-74
2023/01/03 11:35:45;;;;;;;40.38;25.25;;;7.50;99.90;;;;;;5033721;28;20254;-73
2023/01/03 11:38:27;;;;;;;35.13;24.10;;;7.50;99.90;;;;;;5043547;28;20569;-75
2023/01/03 11:41:11;;;;;;;33.92;23.33;;;7.50;99.90;;;;;;5044186;28;20323;-76
2023/01/03 11:43:52;;;;;;;38.15;25.80;;;7.70;99.90;;;;;;5032488;28;20199;-76
2023/01/03 11:46:46;;;;;;;37.17;23.30;;;7.90;99.90;;;;;;5045558;28;20254;-75
2023/01/03 11:49:25;;;;;;;38.20;23.95;;;7.90;99.90;;;;;;5040453;28;20208;-74
2023/01/03 11:52:06;;;;;;;39.35;26.15;;;8.00;99.90;;;;;;5049070;28;20294;-74
2023/01/03 11:55:06;;;;;;;37.70;24.27;;;8.10;99.90;;;;;;5031307;28;20199;-76
2023/01/03 11:57:42;;;;;;;33.58;23.52;;;8.10;99.90;;;;;;5049453;28;20203;-74
2023/01/03 12:00:17;;;;;;;46.03;26.52;;;8.00;99.90;;;;;;5026980;28;20250;-74
2023/01/03 12:03:00;;;;;;;43.90;27.65;;;8.00;99.90;;;;;;5042526;28;20301;-74
2023/01/03 12:05:48;;;;;;;38.95;23.42;;;8.10;99.90;;;;;;5050212;28;20330;-76
2023/01/03 12:08:59;;;;;;;37.17;25.40;;;8.10;99.90;;;;;;5047343;28;20589;-76
2023/01/03 12:11:40;;;;;;;36.70;23.27;;;8.10;99.90;;;;;;5045481;28;20187;-76
2023/01/03 12:14:17;;;;;;;46.83;26.73;;;8.20;99.90;;;;;;5053328;28;20274;-75
2023/01/03 12:16:46;;;;;;;38.50;25.10;;;8.00;99.90;;;;;;5046823;28;20258;-76
2023/01/03 12:19:29;;;;;;;43.80;26.65;;;7.90;99.90;;;;;;5050483;28;20295;-75
2023/01/03 12:22:02;;;;;;;37.28;25.25;;;7.80;99.90;;;;;;5037784;28;20255;-75
2023/01/03 12:24:35;;;;;;;40.70;24.33;;;7.80;99.90;;;;;;5027822;28;20635;-77
2023/01/03 12:27:09;;;;;;;36.17;24.30;;;7.90;99.90;;;;;;5047651;28;20242;-76
2023/01/03 12:29:49;;;;;;;35.53;23.70;;;8.00;99.90;;;;;;5043793;28;20246;-75
2023/01/03 12:32:22;;;;;;;35.90;23.50;;;8.00;99.90;;;;;;5048878;28;20196;-76
2023/01/03 12:34:56;;;;;;;32.65;21.65;;;8.10;99.90;;;;;;5049128;28;20563;-74
2023/01/03 12:37:26;;;;;;;37.17;24.85;;;8.30;99.90;;;;;;5048638;28;20626;-74
2023/01/03 12:39:57;;;;;;;35.50;24.40;;;8.40;99.90;;;;;;5050560;28;20199;-73
2023/01/03 12:42:32;;;;;;;39.83;23.10;;;8.40;99.90;;;;;;5041552;28;20273;-76
2023/01/03 12:45:13;;;;;;;36.00;24.23;;;8.40;99.90;;;;;;5026379;28;20239;-74
2023/01/03 12:47:45;;;;;;;41.35;25.48;;;8.30;99.90;;;;;;5028368;28;20195;-72
2023/01/03 12:50:18;;;;;;;35.92;23.88;;;8.30;99.90;;;;;;5044852;28;20235;-75
2023/01/03 12:52:50;;;;;;;29.73;20.63;;;8.20;99.90;;;;;;5042958;28;20230;-74
2023/01/03 12:55:23;;;;;;;35.97;25.52;;;8.30;99.90;;;;;;5055325;28;20223;-74
2023/01/03 12:58:11;;;;;;;37.88;25.58;;;8.30;99.90;;;;;;5049519;28;20204;-75
2023/01/03 13:00:52;;;;;;;31.77;22.55;;;8.50;99.90;;;;;;5029635;28;20208;-74
2023/01/03 13:03:24;;;;;;;36.25;24.25;;;8.40;99.90;;;;;;5025196;28;20200;-74
2023/01/03 13:05:56;;;;;;;38.08;25.65;;;8.40;99.90;;;;;;5042441;28;20231;-73
2023/01/03 13:08:32;;;;;;;32.58;23.98;;;8.30;99.90;;;;;;5047449;28;20260;-75
2023/01/03 13:11:03;;;;;;;33.38;24.55;;;8.40;99.90;;;;;;5026439;28;20206;-73
2023/01/03 13:13:31;;;;;;;39.75;25.98;;;8.40;99.90;;;;;;5053515;28;20226;-72
2023/01/03 13:16:40;;;;;;;38.05;25.90;;;8.40;99.90;;;;;;5059917;28;20255;-74
2023/01/03 13:19:39;;;;;;;33.70;23.60;;;8.30;99.90;;;;;;5046518;28;20227;-72
2023/01/03 13:22:21;;;;;;;40.28;27.48;;;8.30;99.90;;;;;;5034228;28;20217;-73
2023/01/03 13:24:50;;;;;;;40.50;26.83;;;8.40;99.90;;;;;;5039094;28;20200;-74
2023/01/03 13:27:38;;;;;;;35.15;23.35;;;8.30;99.90;;;;;;5045573;28;20206;-75
2023/01/03 13:30:21;;;;;;;39.53;25.33;;;8.30;99.90;;;;;;5051907;28;20566;-75
2023/01/03 13:32:52;;;;;;;40.65;23.52;;;8.30;99.90;;;;;;5047907;28;20249;-74
2023/01/03 13:35:30;;;;;;;41.92;25.48;;;8.30;99.90;;;;;;5037781;28;20307;-76
2023/01/03 13:38:00;;;;;;;40.85;25.63;;;8.20;99.90;;;;;;5039291;28;20615;-74
2023/01/03 13:40:30;;;;;;;47.22;27.13;;;8.00;99.90;;;;;;5051196;28;20633;-73
2023/01/03 13:43:16;;;;;;;46.25;27.02;;;8.10;99.90;;;;;;5046135;28;20227;-76
2023/01/03 13:45:53;;;;;;;38.95;23.75;;;8.00;99.90;;;;;;5032520;28;20254;-75
2023/01/03 13:48:39;;;;;;;37.17;24.33;;;8.00;99.90;;;;;;5052927;28;20223;-74
2023/01/03 13:51:38;;;;;;;36.00;25.05;;;8.00;99.90;;;;;;5052674;28;20358;-75
2023/01/03 13:54:26;;;;;;;40.50;26.30;;;8.00;99.90;;;;;;5036645;28;20228;-74
2023/01/03 13:57:02;;;;;;;34.97;24.15;;;8.00;99.90;;;;;;5049446;28;20247;-75
2023/01/03 13:59:34;;;;;;;41.85;24.15;;;8.10;99.90;;;;;;5041262;28;20192;-74
2023/01/03 14:02:40;;;;;;;40.85;24.50;;;8.10;99.90;;;;;;5049665;28;20685;-74